Time;durP1;ratioP1;P1;durP2;ratioP2;P2;SDS_P1;SDS_P2;PMS_P1;PMS_P2;Temp;Humidity;BMP_temperature;BMP_pressure;BME280_temperature;BME280_humidity;BME280_pressure;Samples;Min_cycle;Max_cycle;Signal;HPM_P1;HPM_P2
2021/10/14 00:01:53;;;;;;;15.83;11.70;;;;;;;4.93;100.00;97189.94;4954330;28;20015;-81
2021/10/14 00:04:18;;;;;;;15.00;11.53;;;;;;;4.96;100.00;97189.72;4950763;28;20117;-81
2021/10/14 00:06:45;;;;;;;15.67;11.30;;;;;;;4.92;100.00;97178.66;4951241;28;20564;-81
2021/10/14 00:09:12;;;;;;;19.77;14.70;;;;;;;5.00;100.00;97182.53;4951992;28;20046;-82
2021/10/14 00:11:38;;;;;;;20.50;14.47;;;;;;;5.06;100.00;97189.94;4949483;28;20027;-81
2021/10/14 00:14:04;;;;;;;18.47;13.40;;;;;;;5.04;100.00;97187.44;4937260;28;20046;-82
2021/10/14 00:16:31;;;;;;;19.37;13.43;;;;;;;5.07;100.00;97189.84;4935494;28;20034;-81
2021/10/14 00:18:57;;;;;;;21.63;14.60;;;;;;;5.08;100.00;97190.69;4938911;28;20508;-82
2021/10/14 00:21:37;;;;;;;21.70;15.27;;;;;;;5.02;100.00;97191.09;4940637;29;20031;-81
2021/10/14 00:24:02;;;;;;;19.57;14.73;;;;;;;5.07;100.00;97189.03;4938992;28;20034;-82
2021/10/14 00:26:28;;;;;;;20.90;14.17;;;;;;;5.04;100.00;97186.63;4937917;28;20358;-82
2021/10/14 00:28:54;;;;;;;21.30;15.23;;;;;;;5.05;100.00;97186.50;4938265;28;20121;-81
2021/10/14 00:31:20;;;;;;;21.03;13.30;;;;;;;5.07;100.00;97189.03;4937942;28;20121;-81
2021/10/14 00:33:46;;;;;;;18.73;13.87;;;;;;;4.96;100.00;97180.16;4954143;28;20046;-81
2021/10/14 00:36:30;;;;;;;19.67;13.57;;;;;;;5.04;100.00;97184.00;4953229;28;20019;-81
2021/10/14 00:38:55;;;;;;;19.97;14.17;;;;;;;5.05;100.00;97183.06;4930762;28;20048;-81
2021/10/14 00:41:21;;;;;;;19.90;14.00;;;;;;;4.95;100.00;97183.66;4968975;28;20106;-81
2021/10/14 00:43:47;;;;;;;20.83;14.73;;;;;;;4.92;100.00;97180.44;4960550;28;20157;-82
2021/10/14 00:46:17;;;;;;;19.73;14.07;;;;;;;4.88;100.00;97178.97;4967148;28;20050;-81
2021/10/14 00:48:43;;;;;;;19.90;15.50;;;;;;;4.86;100.00;97173.88;4949084;28;20510;-81
2021/10/14 00:51:09;;;;;;;20.13;13.63;;;;;;;4.81;100.00;97170.72;4934078;28;20037;-81
2021/10/14 00:53:41;;;;;;;17.80;12.67;;;;;;;4.74;100.00;97174.66;4930408;28;20056;-81
2021/10/14 00:56:14;;;;;;;20.70;12.90;;;;;;;4.72;100.00;97173.91;4943576;28;20054;-81
2021/10/14 00:58:40;;;;;;;22.87;13.87;;;;;;;4.66;100.00;97177.78;4935301;28;20045;-82
2021/10/14 01:01:06;;;;;;;18.53;13.27;;;;;;;4.55;100.00;97187.19;4936969;28;20031;-81
2021/10/14 01:03:32;;;;;;;21.43;13.90;;;;;;;4.54;100.00;97185.53;4953218;28;20497;-81
2021/10/14 01:05:58;;;;;;;20.03;13.97;;;;;;;4.53;100.00;97183.84;4952890;28;20125;-81
2021/10/14 01:08:24;;;;;;;16.37;12.50;;;;;;;4.49;100.00;97178.00;4954027;28;20105;-81
2021/10/14 01:10:51;;;;;;;20.37;13.63;;;;;;;4.48;100.00;97189.38;4936960;28;20026;-81
2021/10/14 01:13:17;;;;;;;18.70;13.00;;;;;;;4.49;100.00;97180.59;4966107;28;20027;-81
2021/10/14 01:15:44;;;;;;;20.30;13.77;;;;;;;4.46;100.00;97191.22;4944590;28;20023;-81
2021/10/14 01:18:11;;;;;;;16.77;12.37;;;;;;;4.44;100.00;97183.50;4971160;28;20042;-81
2021/10/14 01:20:42;;;;;;;19.73;12.53;;;;;;;4.46;100.00;97171.25;4950221;29;20497;-81
2021/10/14 01:23:08;;;;;;;19.17;13.07;;;;;;;4.41;100.00;97167.25;4969333;28;20101;-81
2021/10/14 01:25:34;;;;;;;19.37;12.80;;;;;;;4.39;100.00;97169.97;4934296;28;20478;-81
2021/10/14 01:27:59;;;;;;;17.70;13.90;;;;;;;4.37;100.00;97164.00;4952773;28;20039;-81
2021/10/14 01:30:25;;;;;;;17.87;12.80;;;;;;;4.25;100.00;97163.00;4956598;28;20054;-81
2021/10/14 01:32:51;;;;;;;21.03;13.87;;;;;;;4.22;100.00;97168.41;4941380;28;20071;-81
2021/10/14 01:35:18;;;;;;;19.03;13.57;;;;;;;4.21;100.00;97166.75;4956970;28;20072;-81
2021/10/14 01:37:44;;;;;;;18.13;13.20;;;;;;;4.22;100.00;97162.38;4939723;28;20053;-81
2021/10/14 01:40:11;;;;;;;17.93;11.97;;;;;;;4.18;100.00;97153.91;4940890;28;20019;-81
2021/10/14 01:42:37;;;;;;;18.83;13.20;;;;;;;4.15;100.00;97143.69;4948481;28;20444;-81
2021/10/14 01:45:04;;;;;;;19.50;13.50;;;;;;;4.12;100.00;97145.66;4956657;28;20037;-80
2021/10/14 01:47:31;;;;;;;20.03;14.07;;;;;;;4.11;100.00;97144.81;4956175;28;20042;-81
2021/10/14 01:49:57;;;;;;;18.03;13.17;;;;;;;4.12;100.00;97137.84;4973246;28;20027;-81
2021/10/14 01:52:23;;;;;;;18.40;13.17;;;;;;;4.07;100.00;97147.72;4957013;28;20232;-83
2021/10/14 01:54:49;;;;;;;19.83;13.80;;;;;;;4.09;100.00;97145.84;4972352;28;20030;-81
2021/10/14 01:57:15;;;;;;;20.63;13.90;;;;;;;3.99;100.00;97156.88;4936052;28;20043;-81
2021/10/14 01:59:41;;;;;;;19.27;13.40;;;;;;;3.90;100.00;97157.44;4940535;28;20023;-83
2021/10/14 02:02:06;;;;;;;20.30;14.20;;;;;;;3.81;100.00;97167.56;4975267;28;20041;-81
2021/10/14 02:04:32;;;;;;;28.40;19.23;;;;;;;3.86;100.00;97155.94;4976186;28;20023;-82
2021/10/14 02:06:58;;;;;;;29.33;19.60;;;;;;;3.86;100.00;97155.13;4950440;28;20046;-82
2021/10/14 02:09:24;;;;;;;22.03;15.10;;;;;;;3.87;100.00;97151.59;4942887;28;20457;-82
2021/10/14 02:11:49;;;;;;;16.87;12.63;;;;;;;3.80;100.00;97140.72;4941994;28;20022;-81
2021/10/14 02:14:15;;;;;;;19.57;13.20;;;;;;;3.77;100.00;97146.09;4942608;28;20033;-82
2021/10/14 02:16:41;;;;;;;17.20;12.83;;;;;;;3.72;100.00;97154.22;4958078;28;20038;-81
2021/10/14 02:19:07;;;;;;;19.67;12.80;;;;;;;3.75;100.00;97150.56;4942008;28;20034;-81
2021/10/14 02:21:39;;;;;;;20.53;12.47;;;;;;;3.74;100.00;97152.31;4958331;28;20486;-81
2021/10/14 02:24:05;;;;;;;17.27;13.13;;;;;;;3.65;100.00;97147.69;4957771;28;20378;-81
2021/10/14 02:26:31;;;;;;;16.73;12.47;;;;;;;3.62;100.00;97147.03;4942187;28;20354;-81
2021/10/14 02:28:56;;;;;;;17.47;12.20;;;;;;;3.64;100.00;97150.41;4942067;28;20039;-81
2021/10/14 02:31:22;;;;;;;18.40;11.67;;;;;;;3.51;100.00;97151.13;4939929;29;20063;-81
2021/10/14 02:33:48;;;;;;;16.73;11.37;;;;;;;3.54;100.00;97150.13;4957952;28;20034;-81
2021/10/14 02:36:30;;;;;;;16.90;11.70;;;;;;;3.49;100.00;97155.59;4938310;29;20064;-81
2021/10/14 02:38:55;;;;;;;15.60;11.83;;;;;;;3.50;100.00;97149.47;4950957;28;20026;-81
2021/10/14 02:41:21;;;;;;;15.37;11.40;;;;;;;3.48;100.00;97148.72;4957454;28;20023;-81
2021/10/14 02:43:48;;;;;;;15.30;11.20;;;;;;;3.45;100.00;97148.06;4958126;28;20034;-81
2021/10/14 02:46:13;;;;;;;19.13;12.13;;;;;;;3.49;100.00;97144.38;4957753;28;20027;-81
2021/10/14 02:48:39;;;;;;;18.37;11.20;;;;;;;3.47;100.00;97147.06;4957981;28;20044;-81
2021/10/14 03:06:13;;;;;;;23.77;11.67;;;;;;;3.40;100.00;97142.31;4962095;28;20053;-81
2021/10/14 03:08:52;;;;;;;18.23;11.77;;;;;;;3.45;100.00;97146.28;4961558;28;20035;-81
2021/10/14 03:11:18;;;;;;;20.07;12.43;;;;;;;3.47;100.00;97136.66;4954637;28;20544;-81
2021/10/14 03:13:43;;;;;;;16.37;12.13;;;;;;;3.46;100.00;97140.19;4954761;28;20046;-81
2021/10/14 03:16:09;;;;;;;16.67;12.27;;;;;;;3.43;100.00;97142.13;4954802;28;20050;-81
2021/10/14 03:18:35;;;;;;;18.07;13.20;;;;;;;3.39;100.00;97133.69;4938386;28;20027;-81
2021/10/14 03:21:00;;;;;;;17.27;12.87;;;;;;;3.38;100.00;97139.78;4935577;29;20039;-81
2021/10/14 03:23:26;;;;;;;18.70;12.90;;;;;;;3.45;100.00;97141.09;4954833;28;20039;-80
2021/10/14 03:25:52;;;;;;;18.37;12.80;;;;;;;3.47;100.00;97135.81;4945465;28;20043;-81
2021/10/14 03:28:18;;;;;;;20.43;13.33;;;;;;;3.48;100.00;97135.72;4947729;28;20110;-80
2021/10/14 03:30:46;;;;;;;20.30;13.73;;;;;;;3.51;100.00;97137.28;4945596;28;20042;-81
2021/10/14 03:33:11;;;;;;;21.53;13.97;;;;;;;3.47;100.00;97135.81;4955405;28;20094;-80
2021/10/14 03:35:37;;;;;;;22.63;14.70;;;;;;;3.52;100.00;97134.63;4946164;28;20039;-80
2021/10/14 03:38:03;;;;;;;17.30;12.70;;;;;;;3.46;100.00;97128.97;4954706;28;20031;-81
2021/10/14 03:40:29;;;;;;;19.17;13.53;;;;;;;3.44;100.00;97134.22;4954375;28;20097;-80
2021/10/14 03:42:59;;;;;;;18.97;12.60;;;;;;;3.34;100.00;97138.31;4939384;28;20030;-81
2021/10/14 03:45:24;;;;;;;22.73;13.10;;;;;;;3.37;100.00;97135.53;4938365;28;20611;-82
2021/10/14 03:47:50;;;;;;;18.00;13.97;;;;;;;3.38;100.00;97147.59;4960554;28;20023;-81
2021/10/14 03:50:16;;;;;;;20.97;13.37;;;;;;;3.38;100.00;97145.00;4938381;28;20050;-81
2021/10/14 03:52:42;;;;;;;20.53;13.67;;;;;;;3.40;100.00;97148.34;4937038;28;20057;-81
2021/10/14 03:55:13;;;;;;;16.87;12.00;;;;;;;3.39;100.00;97146.69;4946618;28;20131;-81
2021/10/14 03:57:39;;;;;;;19.40;13.57;;;;;;;3.42;100.00;97145.66;4954877;28;20898;-81
2021/10/14 04:00:07;;;;;;;23.50;15.17;;;;;;;3.41;100.00;97139.63;4939040;28;20110;-81
2021/10/14 04:02:42;;;;;;;19.60;12.47;;;;;;;3.39;100.00;97149.28;4951805;28;20047;-81
2021/10/14 04:05:09;;;;;;;23.37;15.73;;;;;;;3.34;100.00;97148.72;4971316;28;20046;-81
2021/10/14 04:07:34;;;;;;;23.77;15.80;;;;;;;3.39;100.00;97153.66;4939141;28;20033;-80
2021/10/14 04:10:00;;;;;;;30.80;18.13;;;;;;;3.37;100.00;97151.13;4938366;28;20413;-81
2021/10/14 04:12:26;;;;;;;27.50;17.90;;;;;;;3.38;100.00;97162.38;4953836;28;20035;-81
2021/10/14 04:14:52;;;;;;;26.93;16.63;;;;;;;3.42;100.00;97162.09;4953661;28;20054;-80
2021/10/14 04:17:18;;;;;;;22.93;14.90;;;;;;;3.47;100.00;97180.03;4971309;28;20034;-81
2021/10/14 04:19:44;;;;;;;17.73;12.73;;;;;;;3.49;100.00;97163.41;4956820;28;20039;-81
2021/10/14 04:22:09;;;;;;;18.57;12.77;;;;;;;3.51;100.00;97163.31;4971473;28;20077;-81
2021/10/14 04:24:35;;;;;;;17.57;12.27;;;;;;;3.55;100.00;97172.59;4953632;28;20035;-81
2021/10/14 04:27:01;;;;;;;23.50;12.57;;;;;;;3.79;100.00;97170.28;4934790;29;20129;-81
2021/10/14 04:29:27;;;;;;;15.63;11.70;;;;;;;3.71;100.00;97170.72;4953755;28;20114;-82
2021/10/14 04:31:53;;;;;;;18.73;12.77;;;;;;;3.66;100.00;97170.19;4945711;28;20352;-81
2021/10/14 04:34:20;;;;;;;20.27;12.80;;;;;;;3.69;100.00;97170.00;4938226;28;20034;-82
2021/10/14 04:36:46;;;;;;;20.97;15.10;;;;;;;3.70;100.00;97170.84;4953124;28;20038;-81
2021/10/14 04:39:12;;;;;;;25.87;17.97;;;;;;;3.69;100.00;97171.75;4953506;28;20030;-81
2021/10/14 04:41:38;;;;;;;21.40;13.17;;;;;;;3.72;100.00;97174.16;4935403;28;20042;-81
2021/10/14 04:44:04;;;;;;;17.70;11.63;;;;;;;3.77;100.00;97183.38;4933590;29;20042;-81
2021/10/14 04:46:30;;;;;;;17.00;11.30;;;;;;;3.78;100.00;97179.00;4966985;28;20035;-81
2021/10/14 04:48:56;;;;;;;15.77;11.20;;;;;;;3.82;100.00;97184.84;4949804;28;20038;-81
2021/10/14 04:51:22;;;;;;;16.47;11.10;;;;;;;3.80;100.00;97184.94;4952573;28;20038;-81
2021/10/14 04:53:47;;;;;;;20.20;14.70;;;;;;;3.77;100.00;97179.94;4933756;28;20038;-81
2021/10/14 04:56:13;;;;;;;19.43;13.57;;;;;;;3.80;100.00;97182.34;4970899;28;20117;-81
2021/10/14 04:58:39;;;;;;;18.40;12.00;;;;;;;3.81;100.00;97186.59;4954857;28;20053;-81
2021/10/14 05:01:05;;;;;;;16.47;11.67;;;;;;;3.81;100.00;97180.56;4970318;28;20555;-81
2021/10/14 05:03:38;;;;;;;17.37;11.57;;;;;;;3.81;100.00;97181.41;4953671;28;20062;-81
2021/10/14 05:06:03;;;;;;;11.90;8.10;;;;;;;3.83;100.00;97182.16;4952717;29;20046;-81
2021/10/14 05:08:29;;;;;;;16.93;10.93;;;;;;;3.80;100.00;97177.16;4954833;28;20026;-81
2021/10/14 05:10:55;;;;;;;19.27;11.70;;;;;;;3.81;100.00;97178.81;4941277;28;20031;-81
2021/10/14 05:13:20;;;;;;;17.50;11.70;;;;;;;3.86;100.00;97171.56;4957001;28;20026;-81
2021/10/14 05:15:46;;;;;;;17.80;11.83;;;;;;;3.98;100.00;97180.38;4970967;28;20039;-81
2021/10/14 05:18:12;;;;;;;16.83;11.37;;;;;;;3.87;100.00;97183.63;4957337;28;20100;-81
2021/10/14 05:20:38;;;;;;;21.27;12.17;;;;;;;3.89;100.00;97180.94;4955006;28;20516;-81
2021/10/14 05:23:04;;;;;;;19.00;12.13;;;;;;;3.93;100.00;97178.06;4956412;28;20077;-81
2021/10/14 05:25:31;;;;;;;16.73;11.47;;;;;;;3.96;100.00;97174.44;4956812;28;20043;-80
2021/10/14 05:27:57;;;;;;;15.57;11.00;;;;;;;3.95;100.00;97181.38;4941509;28;20026;-81
2021/10/14 05:30:43;;;;;;;17.03;11.37;;;;;;;3.97;100.00;97168.28;4957123;28;20121;-81
2021/10/14 05:33:08;;;;;;;20.57;14.20;;;;;;;4.03;100.00;97182.69;4952104;28;20079;-81
2021/10/14 05:35:38;;;;;;;19.53;13.33;;;;;;;4.08;100.00;97172.81;4972181;28;20110;-81
2021/10/14 05:38:06;;;;;;;19.13;12.07;;;;;;;4.10;100.00;97176.19;4941378;28;20500;-81
2021/10/14 05:40:32;;;;;;;16.53;10.77;;;;;;;4.07;100.00;97182.41;4940889;28;20118;-81
2021/10/14 05:43:00;;;;;;;16.93;11.43;;;;;;;4.14;100.00;97175.88;4957015;28;20404;-81
2021/10/14 05:45:25;;;;;;;17.60;10.37;;;;;;;4.11;100.00;97175.22;4953247;28;20031;-81
2021/10/14 05:47:51;;;;;;;17.83;10.70;;;;;;;4.10;100.00;97183.97;4949049;28;20049;-81
2021/10/14 05:50:19;;;;;;;14.53;10.13;;;;;;;4.09;100.00;97188.38;4972614;28;20086;-82
2021/10/14 05:52:45;;;;;;;17.77;12.20;;;;;;;4.08;100.00;97185.84;4956703;28;20050;-81
2021/10/14 05:55:11;;;;;;;15.77;11.20;;;;;;;4.12;100.00;97184.72;4940300;28;20039;-81
2021/10/14 05:57:37;;;;;;;16.03;10.87;;;;;;;4.11;100.00;97183.03;4940297;28;20068;-81
2021/10/14 06:00:04;;;;;;;16.10;10.40;;;;;;;4.15;100.00;97176.72;4936923;29;20031;-82
2021/10/14 06:02:30;;;;;;;14.23;10.30;;;;;;;4.21;100.00;97181.53;4963361;28;20098;-81
2021/10/14 06:04:56;;;;;;;18.17;9.93;;;;;;;4.11;100.00;97191.69;4939749;28;20031;-81
2021/10/14 06:07:22;;;;;;;16.10;10.03;;;;;;;4.22;100.00;97183.19;4940697;28;20031;-81
2021/10/14 06:10:04;;;;;;;14.83;9.67;;;;;;;4.22;100.00;97180.59;4955465;28;20037;-82
2021/10/14 06:12:29;;;;;;;14.60;9.90;;;;;;;4.23;100.00;97174.47;4953288;28;20456;-82
2021/10/14 06:14:55;;;;;;;16.57;10.30;;;;;;;4.33;100.00;97177.34;4955339;28;20141;-81
2021/10/14 06:17:21;;;;;;;16.90;9.67;;;;;;;4.30;100.00;97175.75;4940154;28;20074;-81
2021/10/14 06:20:14;;;;;;;15.90;9.67;;;;;;;4.37;100.00;97179.63;4972254;28;20504;-81
2021/10/14 06:22:40;;;;;;;13.05;8.85;;;;;;;4.37;100.00;97186.63;4939725;28;20035;-82
2021/10/14 06:25:06;;;;;;;17.30;9.00;;;;;;;4.33;100.00;97185.97;4955579;28;20031;-81
2021/10/14 06:27:32;;;;;;;13.27;8.57;;;;;;;4.38;100.00;97180.47;4940032;28;20443;-82
2021/10/14 06:29:59;;;;;;;15.47;8.93;;;;;;;4.45;100.00;97182.56;4955923;28;20031;-81
2021/10/14 06:32:27;;;;;;;17.37;8.97;;;;;;;4.54;100.00;97186.38;4939932;28;20035;-82
2021/10/14 06:34:57;;;;;;;12.90;9.40;;;;;;;4.59;100.00;97175.63;4947472;28;20098;-81
2021/10/14 06:37:41;;;;;;;21.50;11.87;;;;;;;4.62;100.00;97176.28;4953406;28;20045;-81
2021/10/14 06:40:08;;;;;;;15.83;9.67;;;;;;;4.67;100.00;97179.44;4954754;28;20105;-81
2021/10/14 06:42:34;;;;;;;14.77;9.67;;;;;;;4.75;100.00;97173.72;4955292;28;20497;-81
2021/10/14 06:45:00;;;;;;;13.40;9.63;;;;;;;4.77;100.00;97174.47;4972646;28;20035;-81
2021/10/14 06:47:27;;;;;;;17.07;9.43;;;;;;;4.82;100.00;97176.75;4936399;28;20125;-81
2021/10/14 06:49:53;;;;;;;13.43;9.13;;;;;;;4.78;100.00;97181.34;4971698;28;21016;-82
2021/10/14 06:52:18;;;;;;;18.57;8.83;;;;;;;4.80;100.00;97189.91;4946840;28;20030;-82
2021/10/14 06:54:44;;;;;;;13.97;9.50;;;;;;;4.82;100.00;97188.00;4939261;28;20042;-82
2021/10/14 06:57:11;;;;;;;15.17;8.73;;;;;;;4.89;100.00;97184.06;4973081;28;20023;-81
2021/10/14 06:59:36;;;;;;;14.30;8.83;;;;;;;4.89;100.00;97181.47;4953944;28;20041;-81
2021/10/14 07:02:06;;;;;;;16.23;9.37;;;;;;;4.90;100.00;97180.53;4951169;28;20027;-81
2021/10/14 07:04:32;;;;;;;12.70;8.33;;;;;;;4.95;100.00;97178.44;4955554;28;20397;-81
2021/10/14 07:07:00;;;;;;;12.60;8.20;;;;;;;4.92;100.00;97170.84;4954999;28;20034;-81
2021/10/14 07:09:26;;;;;;;14.40;7.67;;;;;;;5.04;100.00;97169.19;4954966;28;20041;-81
2021/10/14 07:11:55;;;;;;;13.80;8.33;;;;;;;5.14;100.00;97183.28;4954854;28;20022;-81
2021/10/14 07:14:21;;;;;;;13.57;7.97;;;;;;;5.12;100.00;97189.53;4939098;28;20042;-81
2021/10/14 07:16:48;;;;;;;11.20;7.40;;;;;;;5.27;100.00;97192.91;4972229;28;20081;-81
2021/10/14 07:19:15;;;;;;;16.20;9.97;;;;;;;5.26;100.00;97199.88;4948356;29;20046;-81
2021/10/14 07:21:41;;;;;;;14.83;8.00;;;;;;;5.31;100.00;97199.59;4935434;28;20031;-81
2021/10/14 07:24:06;;;;;;;11.53;7.27;;;;;;;5.37;100.00;97205.22;4955061;28;20584;-83
2021/10/14 07:26:32;;;;;;;13.97;7.33;;;;;;;5.41;100.00;97196.25;4953894;28;20026;-81
2021/10/14 07:29:00;;;;;;;13.10;8.00;;;;;;;5.51;100.00;97201.69;4967157;28;20039;-81
2021/10/14 07:31:25;;;;;;;11.70;7.73;;;;;;;5.52;100.00;97202.50;4938509;28;20118;-81
2021/10/14 07:33:51;;;;;;;10.33;6.83;;;;;;;5.52;100.00;97211.16;4947066;28;20113;-81
2021/10/14 07:36:17;;;;;;;12.37;7.47;;;;;;;5.60;100.00;97200.19;4937604;28;20033;-81
2021/10/14 07:39:20;;;;;;;12.70;7.17;;;;;;;5.67;100.00;97198.88;4937905;28;20031;-81
2021/10/14 07:41:46;;;;;;;10.77;6.97;;;;;;;5.73;100.00;97195.81;4954785;28;20043;-82
2021/10/14 07:44:13;;;;;;;13.43;6.23;;;;;;;5.72;100.00;97191.53;4971589;28;20034;-82
2021/10/14 07:46:40;;;;;;;11.97;6.57;;;;;;;5.86;100.00;97196.63;4938012;28;20054;-81
2021/10/14 07:49:06;;;;;;;10.63;6.20;;;;;;;5.87;100.00;97198.31;4954202;28;20110;-82
2021/10/14 07:51:32;;;;;;;11.03;6.43;;;;;;;6.04;100.00;97199.78;4970531;28;20079;-82
2021/10/14 07:53:58;;;;;;;13.37;5.70;;;;;;;6.17;100.00;97199.78;4971591;28;20430;-82
2021/10/14 07:56:33;;;;;;;12.53;6.87;;;;;;;6.41;100.00;97196.38;4968749;28;20089;-81
2021/10/14 07:59:00;;;;;;;10.53;6.50;;;;;;;6.35;100.00;97193.22;4932361;28;20149;-82
2021/10/14 08:01:26;;;;;;;10.10;5.93;;;;;;;6.25;100.00;97199.22;4952804;28;20477;-82
2021/10/14 08:03:52;;;;;;;10.57;5.93;;;;;;;6.28;100.00;97205.06;4946764;28;20114;-82
2021/10/14 08:06:17;;;;;;;10.67;6.00;;;;;;;6.34;100.00;97216.88;4946264;28;20050;-82
2021/10/14 08:08:44;;;;;;;8.93;5.23;;;;;;;6.28;100.00;97212.06;4942251;28;20281;-82
2021/10/14 08:11:10;;;;;;;9.10;5.23;;;;;;;6.16;100.00;97205.91;4937664;28;20027;-81
2021/10/14 08:13:36;;;;;;;9.93;5.73;;;;;;;6.25;100.00;97205.28;4954060;28;20066;-81
2021/10/14 08:16:03;;;;;;;12.03;5.93;;;;;;;6.29;100.00;97204.09;4953590;28;20034;-81
2021/10/14 08:18:30;;;;;;;9.17;5.80;;;;;;;6.34;100.00;97211.63;4953682;28;20038;-81
2021/10/14 08:20:57;;;;;;;10.50;5.87;;;;;;;6.34;100.00;97209.84;4933855;29;20047;-81
2021/10/14 08:23:28;;;;;;;11.60;6.23;;;;;;;6.47;100.00;97201.13;4950266;28;20046;-81
2021/10/14 08:25:55;;;;;;;8.10;5.03;;;;;;;6.38;100.00;97203.47;4937406;28;20106;-81
2021/10/14 08:28:23;;;;;;;13.80;6.47;;;;;;;6.42;100.00;97203.25;4925989;28;20037;-81
2021/10/14 08:30:50;;;;;;;10.70;5.77;;;;;;;6.50;100.00;97206.97;4970601;28;20030;-81
2021/10/14 08:33:20;;;;;;;10.63;5.37;;;;;;;6.67;100.00;97203.13;4952784;28;20547;-81
2021/10/14 08:35:46;;;;;;;11.77;6.10;;;;;;;6.77;100.00;97198.94;4944894;28;20043;-80
2021/10/14 08:38:12;;;;;;;11.37;5.47;;;;;;;6.81;100.00;97204.78;4935523;28;20094;-81
2021/10/14 08:40:50;;;;;;;8.57;5.47;;;;;;;6.90;100.00;97204.06;4937457;28;20548;-81
2021/10/14 08:43:17;;;;;;;10.93;5.30;;;;;;;7.06;100.00;97198.56;4937879;28;20966;-80
2021/10/14 08:45:50;;;;;;;8.20;5.57;;;;;;;7.21;100.00;97204.41;4929890;28;20062;-80
2021/10/14 08:48:16;;;;;;;9.55;5.00;;;;;;;7.00;100.00;97212.09;4953272;28;20046;-81
2021/10/14 08:50:45;;;;;;;8.67;5.50;;;;;;;7.19;100.00;97206.34;4969783;28;20109;-81
2021/10/14 08:53:11;;;;;;;8.67;5.90;;;;;;;7.29;100.00;97197.69;4934859;28;20031;-81
2021/10/14 08:55:38;;;;;;;9.33;5.57;;;;;;;7.00;100.00;97199.00;4953814;28;20027;-81
2021/10/14 08:58:21;;;;;;;10.47;4.50;;;;;;;7.16;100.00;97198.72;4954459;28;20049;-81
2021/10/14 09:01:07;;;;;;;10.60;4.97;;;;;;;7.20;100.00;97206.19;4934368;28;20073;-80
2021/10/14 09:03:34;;;;;;;8.83;5.37;;;;;;;7.23;99.46;97205.97;4951723;28;20065;-81
2021/10/14 09:06:09;;;;;;;10.20;5.60;;;;;;;7.43;100.00;97201.88;4937734;28;20027;-81
2021/10/14 09:08:46;;;;;;;10.30;5.00;;;;;;;7.57;100.00;97208.66;4951551;28;20125;-81
2021/10/14 09:11:18;;;;;;;9.83;5.03;;;;;;;7.83;99.79;97203.22;4953690;28;20034;-80
2021/10/14 09:13:53;;;;;;;7.93;4.80;;;;;;;7.63;97.95;97207.38;4952230;28;20501;-80
2021/10/14 09:16:39;;;;;;;10.17;4.77;;;;;;;8.10;97.19;97198.47;4953224;28;20122;-81
2021/10/14 09:19:18;;;;;;;11.67;7.73;;;;;;;8.52;96.52;97184.72;4919924;29;20039;-81
2021/10/14 09:22:02;;;;;;;9.57;5.90;;;;;;;8.32;95.29;97191.56;4944514;28;20035;-81
2021/10/14 09:24:35;;;;;;;10.33;5.07;;;;;;;8.68;94.90;97183.38;4953454;28;20031;-81
2021/10/14 09:27:12;;;;;;;8.82;4.28;;;;;;;8.96;93.54;97178.50;4970163;28;20035;-81
2021/10/14 09:29:40;;;;;;;8.70;4.50;;;;;;;8.93;90.45;97178.75;4970973;28;20034;-81
2021/10/14 09:32:07;;;;;;;7.80;3.97;;;;;;;8.92;89.75;97182.31;4937810;28;20100;-81
2021/10/14 09:34:39;;;;;;;8.87;4.43;;;;;;;8.83;90.58;97183.94;4953391;28;20078;-81
2021/10/14 09:37:25;;;;;;;7.73;4.23;;;;;;;9.07;90.05;97175.81;4953116;28;20038;-82
2021/10/14 09:39:54;;;;;;;10.63;3.87;;;;;;;9.06;89.92;97179.41;4948327;28;20022;-81
2021/10/14 09:43:01;;;;;;;13.20;4.57;;;;;;;8.83;89.57;97178.69;4953401;28;20027;-81
2021/10/14 09:45:34;;;;;;;8.50;4.53;;;;;;;9.15;89.16;97173.41;4879473;29;20136;-81
2021/10/14 09:48:03;;;;;;;8.30;4.87;;;;;;;9.36;89.18;97165.53;4887421;29;20043;-82
2021/10/14 09:50:30;;;;;;;9.10;5.60;;;;;;;9.64;89.51;97160.56;4914865;28;20043;-82
2021/10/14 09:53:04;;;;;;;10.03;4.87;;;;;;;9.79;88.49;97155.78;4956699;28;20074;-82
2021/10/14 09:55:30;;;;;;;9.13;4.55;;;;;;;10.12;87.63;97158.13;4956979;28;20129;-81
2021/10/14 09:57:56;;;;;;;10.17;4.47;;;;;;;10.18;86.74;97148.06;4940890;28;20118;-82
2021/10/14 10:00:27;;;;;;;8.60;4.70;;;;;;;10.37;83.69;97150.78;4937695;29;20134;-82
2021/10/14 10:02:54;;;;;;;8.63;4.30;;;;;;;10.65;81.12;97149.16;4956381;28;20049;-82
2021/10/14 10:05:21;;;;;;;7.70;4.10;;;;;;;10.32;83.40;97151.16;4973833;28;20393;-82
2021/10/14 10:07:50;;;;;;;8.17;4.00;;;;;;;10.37;83.21;97148.16;4956470;28;20462;-81
2021/10/14 10:10:21;;;;;;;8.73;4.00;;;;;;;10.99;81.24;97152.19;4956883;28;20039;-81
2021/10/14 10:12:50;;;;;;;8.63;4.50;;;;;;;11.09;80.68;97141.66;4936425;28;20694;-81
2021/10/14 10:15:38;;;;;;;7.73;3.87;;;;;;;11.42;81.42;97157.97;4935598;29;20118;-81
2021/10/14 10:18:41;;;;;;;8.47;3.60;;;;;;;11.33;79.16;97157.00;4934908;28;20043;-81
2021/10/14 10:21:09;;;;;;;9.40;4.73;;;;;;;11.07;81.29;97160.25;4953045;28;20559;-82
2021/10/14 10:23:51;;;;;;;8.60;4.17;;;;;;;10.54;82.22;97163.25;4955713;28;20034;-81
2021/10/14 10:26:35;;;;;;;6.87;3.77;;;;;;;10.59;82.24;97161.03;4971324;28;20110;-82
2021/10/14 10:29:16;;;;;;;7.93;4.50;;;;;;;10.68;82.16;97158.56;4932715;28;20034;-82
2021/10/14 10:31:48;;;;;;;10.07;4.20;;;;;;;10.59;83.25;97149.69;4952365;28;20081;-81
2021/10/14 10:34:41;;;;;;;8.03;4.60;;;;;;;10.60;82.82;97146.13;4955670;28;20030;-81
2021/10/14 10:37:19;;;;;;;11.00;5.00;;;;;;;10.44;82.68;97149.25;4940651;28;20039;-81
2021/10/14 10:39:51;;;;;;;7.17;4.50;;;;;;;10.28;84.19;97146.31;4941338;28;20061;-81
2021/10/14 10:42:42;;;;;;;10.27;4.47;;;;;;;10.34;83.86;97151.03;4953175;28;20533;-81
2021/10/14 10:45:22;;;;;;;9.23;5.53;;;;;;;10.28;85.25;97147.16;4931096;28;20041;-81
2021/10/14 10:47:54;;;;;;;9.23;4.97;;;;;;;10.40;83.97;97144.41;4952862;28;20049;-81
2021/10/14 10:50:46;;;;;;;7.23;4.53;;;;;;;10.52;84.20;97143.31;4932589;28;20079;-81
2021/10/14 10:53:16;;;;;;;8.30;4.73;;;;;;;10.57;83.02;97139.31;4966888;28;20113;-81
2021/10/14 10:55:52;;;;;;;6.77;4.50;;;;;;;10.75;81.48;97133.38;4956541;28;20089;-81
2021/10/14 10:58:47;;;;;;;9.10;4.60;;;;;;;10.76;81.22;97129.75;4973419;28;20409;-81
2021/10/14 11:01:18;;;;;;;8.63;5.20;;;;;;;10.55;83.01;97143.88;4967582;28;20058;-81
2021/10/14 11:03:56;;;;;;;8.83;4.63;;;;;;;10.67;81.84;97130.59;4955365;28;20071;-81
2021/10/14 11:06:22;;;;;;;9.67;4.57;;;;;;;10.90;83.13;97125.88;4954446;28;20113;-81
2021/10/14 11:08:49;;;;;;;7.63;4.83;;;;;;;10.80;79.68;97121.47;4955862;28;20023;-80
2021/10/14 11:11:20;;;;;;;12.17;5.97;;;;;;;10.97;81.27;97119.94;4935976;29;20035;-80
2021/10/14 11:13:53;;;;;;;9.43;5.50;;;;;;;11.04;80.15;97113.13;4964741;28;21242;-80
2021/10/14 11:16:29;;;;;;;10.27;5.57;;;;;;;11.01;80.27;97120.50;4972010;28;20031;-81
2021/10/14 11:18:56;;;;;;;11.47;5.80;;;;;;;10.95;80.01;97113.97;4952938;28;20601;-81
2021/10/14 11:21:26;;;;;;;13.70;5.10;;;;;;;10.91;80.19;97102.06;4972499;28;20067;-81
2021/10/14 11:23:58;;;;;;;8.27;5.30;;;;;;;10.98;78.38;97118.13;4953650;28;20397;-81
2021/10/14 11:26:34;;;;;;;8.50;5.23;;;;;;;11.29;80.03;97114.31;4954466;28;20417;-81
2021/10/14 11:29:16;;;;;;;7.97;4.50;;;;;;;11.32;77.91;97111.41;4965086;28;20042;-81
2021/10/14 11:31:48;;;;;;;10.50;6.30;;;;;;;11.29;79.79;97114.31;4957323;28;20043;-81
2021/10/14 11:34:18;;;;;;;9.53;5.10;;;;;;;11.39;76.50;97113.47;4959095;28;20512;-81
2021/10/14 11:36:57;;;;;;;8.73;4.87;;;;;;;11.45;78.40;97103.22;4937428;28;20512;-81
2021/10/14 11:39:34;;;;;;;8.20;4.87;;;;;;;11.47;76.73;97106.53;4954352;28;20081;-80
2021/10/14 11:42:16;;;;;;;11.57;5.77;;;;;;;11.37;78.35;97107.50;4932510;28;20394;-81
2021/10/14 11:44:47;;;;;;;12.03;5.57;;;;;;;11.21;78.28;97108.97;4953763;28;20096;-81
2021/10/14 11:47:16;;;;;;;8.70;4.87;;;;;;;11.47;77.58;97100.44;4956683;28;20030;-81
2021/10/14 11:49:58;;;;;;;8.90;5.07;;;;;;;11.67;79.39;97095.91;4936318;28;20031;-82